Date,TemperatureHighF,TemperatureAvgF,TemperatureLowF,DewpointHighF,DewpointAvgF,DewpointLowF,HumidityHigh,HumidityAvg,HumidityLow,PressureMaxIn,PressureMinIn,WindSpeedMaxMPH,WindSpeedAvgMPH,GustSpeedMaxMPH,PrecipitationSumIn
2013-1-1,41,32,21,16,5,-6,49,33,25,29.97,29.79,3,1,10,0.00
2013-1-2,29,21,13,0,-14,-100,39,26,27,30.12,29.97,2,0,6,0.00
2013-1-3,33,20,10,4,-23,-100,50,26,27,30.18,30.03,2,0,6,0.00
2013-1-4,40,28,17,11,6,2,60,41,25,30.03,29.88,2,0,8,0.00
2013-1-5,49,31,23,13,7,1,58,38,23,30.27,29.94,4,0,10,0.00
2013-1-6,45,32,26,28,18,12,92,58,27,30.21,29.97,1,0,6,0.04
2013-1-7,46,30,21,23,11,-2,79,49,23,30.41,30.00,3,0,8,0.00
2013-1-8,49,33,20,31,17,8,88,57,23,30.41,30.33,2,0,6,0.00
2013-1-9,42,34,24,33,25,20,95,71,43,30.39,30.09,0,0,4,0.00
2013-1-10,49,38,28,24,10,3,64,33,23,30.53,30.15,4,1,9,0.00
2013-1-11,44,35,25,44,22,5,100,64,26,30.53,30.15,2,0,8,0.32
2013-1-12,47,43,39,46,42,38,100,97,77,30.18,30.06,1,0,6,0.12
2013-1-13,47,41,0,47,43,39,100,98,80,30.18,30.00,0,0,4,0.00
2013-1-14,49,2,0,49,48,43,100,100,100,30.18,29.91,3,1,6,0.08
2013-1-15,42,25,0,49,24,6,100,57,26,30.33,30.24,2,0,5,0.16
2013-1-16,35,33,32,33,29,11,100,87,37,30.24,29.79,1,0,4,0.12
2013-1-17,46,35,30,34,19,0,100,59,23,30.09,29.88,3,0,7,0.20
2013-1-18,31,24,17,2,-3,-8,50,30,27,30.47,30.00,4,2,10,0.00
2013-1-19,45,37,24,27,11,-4,67,37,24,30.41,29.91,2,1,8,0.08
2013-1-20,55,42,28,22,10,-2,59,28,22,29.97,29.65,3,2,10,0.00
2013-1-21,31,26,20,19,4,-6,71,42,27,30.09,29.79,2,0,6,0.00
2013-1-22,31,19,10,16,-21,-100,77,32,27,30.12,29.79,4,2,9,0.00
2013-1-23,26,12,5,-2,-72,-100,30,9,28,30.21,30.12,3,1,8,0.00
2013-1-24,24,12,2,-4,-62,-100,30,12,28,30.30,30.12,5,2,10,0.00
2013-1-25,26,17,7,8,-38,-100,63,23,28,30.36,30.03,3,1,8,0.00
2013-1-26,29,17,0,5,-39,-100,65,20,27,30.24,30.00,4,1,8,0.00
2013-1-27,36,23,0,4,-16,-100,46,25,26,30.47,30.36,3,1,6,0.00
2013-1-28,33,26,15,31,12,-11,93,58,27,30.47,30.00,0,0,4,0.00
2013-1-29,42,35,31,35,28,21,100,78,45,30.18,30.00,1,0,5,0.20
2013-1-30,54,40,0,54,48,35,100,100,92,30.12,29.56,2,0,10,0.00
2013-1-31,50,36,28,20,4,-1,34,26,23,29.71,29.38,4,2,11,0.00